createdAt,value
2018-06-21T00:00:01.236Z,60.92
2018-06-21T00:00:32.412Z,60.64
2018-06-21T00:01:03.585Z,60.82
2018-06-21T00:01:34.810Z,61.13
2018-06-21T00:02:06.004Z,61.48
2018-06-21T00:02:37.176Z,61.72
2018-06-21T00:03:08.349Z,61.07
2018-06-21T00:03:39.526Z,61.41
2018-06-21T00:04:10.756Z,61.95
2018-06-21T00:04:42.001Z,60.99
2018-06-21T00:05:13.180Z,61.08
2018-06-21T00:05:44.396Z,61.80
2018-06-21T00:06:15.626Z,61.52
2018-06-21T00:06:46.829Z,61.55
2018-06-21T00:07:18.008Z,61.93
2018-06-21T00:07:50.009Z,61.35
2018-06-21T00:08:21.258Z,61.38
2018-06-21T00:08:52.482Z,61.99
2018-06-21T00:09:23.673Z,61.53
2018-06-21T00:09:54.848Z,61.32
2018-06-21T00:10:27.195Z,61.26
2018-06-21T00:10:59.564Z,61.26
2018-06-21T00:11:33.522Z,61.95
2018-06-21T00:12:04.694Z,61.82
2018-06-21T00:12:35.926Z,62.02
2018-06-21T00:13:07.159Z,61.80
2018-06-21T00:13:38.442Z,61.77
2018-06-21T00:14:09.678Z,61.77
2018-06-21T00:14:40.868Z,61.80
2018-06-21T00:15:12.098Z,61.89
2018-06-21T00:15:43.288Z,62.84
2018-06-21T00:16:14.511Z,62.42
2018-06-21T00:16:45.685Z,62.93
2018-06-21T00:17:16.923Z,63.19
2018-06-21T00:17:48.101Z,62.72
2018-06-21T00:18:19.309Z,63.50
2018-06-21T00:18:50.529Z,63.61
2018-06-21T00:19:21.765Z,63.32
2018-06-21T00:19:52.994Z,63.55
2018-06-21T00:20:24.221Z,63.59
2018-06-21T00:20:55.453Z,63.12
2018-06-21T00:21:26.633Z,64.02
2018-06-21T00:21:57.810Z,63.94
2018-06-21T00:22:28.986Z,63.55
2018-06-21T00:23:00.152Z,63.54
2018-06-21T00:23:31.376Z,64.29
2018-06-21T00:24:02.606Z,63.54
2018-06-21T00:24:33.833Z,63.93
2018-06-21T00:25:05.056Z,63.32
2018-06-21T00:25:36.232Z,63.50
2018-06-21T00:26:07.406Z,63.77
2018-06-21T00:26:38.580Z,63.54
2018-06-21T00:27:10.172Z,63.44
2018-06-21T00:27:41.340Z,63.17
2018-06-21T00:28:12.560Z,63.23
2018-06-21T00:28:43.783Z,63.54
2018-06-21T00:29:14.989Z,63.85
2018-06-21T00:29:46.212Z,63.17
2018-06-21T00:30:17.394Z,63.73
2018-06-21T00:30:48.639Z,63.17
2018-06-21T00:31:19.847Z,63.38
2018-06-21T00:31:51.076Z,63.86
2018-06-21T00:32:22.316Z,64.23
2018-06-21T00:32:53.501Z,63.98
2018-06-21T00:33:24.668Z,64.03
2018-06-21T00:33:55.836Z,63.70
2018-06-21T00:34:27.052Z,63.92
2018-06-21T00:34:58.229Z,63.83
2018-06-21T00:35:29.458Z,64.21
2018-06-21T00:36:00.641Z,64.90
2018-06-21T00:36:31.860Z,64.18
2018-06-21T00:37:03.046Z,64.21
2018-06-21T00:37:34.228Z,64.55
2018-06-21T00:38:05.405Z,64.42
2018-06-21T00:38:36.583Z,64.27
2018-06-21T00:39:07.764Z,63.81
2018-06-21T00:39:38.952Z,64.12
2018-06-21T00:40:10.116Z,64.39
2018-06-21T00:40:41.338Z,64.27
2018-06-21T00:41:12.526Z,64.54
2018-06-21T00:41:43.765Z,64.12
2018-06-21T00:42:14.946Z,63.46
2018-06-21T00:42:46.133Z,63.62
2018-06-21T00:43:17.352Z,63.34
2018-06-21T00:43:48.536Z,63.32
2018-06-21T00:44:19.708Z,63.77
2018-06-21T00:44:50.882Z,63.14
2018-06-21T00:45:22.055Z,63.45
2018-06-21T00:45:53.267Z,63.26
2018-06-21T00:46:24.481Z,63.73
2018-06-21T00:46:55.710Z,63.33
2018-06-21T00:47:26.901Z,63.60
2018-06-21T00:47:58.125Z,63.49
2018-06-21T00:48:29.352Z,62.98
2018-06-21T00:49:00.532Z,63.50
2018-06-21T00:49:31.709Z,63.10
2018-06-21T00:50:02.937Z,63.16
2018-06-21T00:50:34.124Z,63.50
2018-06-21T00:51:05.352Z,63.74
2018-06-21T00:51:36.533Z,63.78
2018-06-21T00:52:07.753Z,63.23
2018-06-21T00:52:38.974Z,63.83
2018-06-21T00:53:10.201Z,63.63
2018-06-21T00:53:41.441Z,63.09
2018-06-21T00:54:12.643Z,63.51
2018-06-21T00:54:43.816Z,63.38
2018-06-21T00:55:15.053Z,63.59
2018-06-21T00:55:46.223Z,63.83
2018-06-21T00:56:17.396Z,63.80
2018-06-21T00:56:48.621Z,63.06
2018-06-21T00:57:19.893Z,63.16
2018-06-21T00:57:51.074Z,63.83
2018-06-21T00:58:22.288Z,63.70
2018-06-21T00:58:53.452Z,63.40
2018-06-21T00:59:24.680Z,63.87
2018-06-21T00:59:55.859Z,63.84
2018-06-21T01:00:27.077Z,63.56
2018-06-21T01:00:58.260Z,63.70
2018-06-21T01:01:29.477Z,63.53
2018-06-21T01:02:00.720Z,63.47
2018-06-21T01:02:31.899Z,63.64
2018-06-21T01:03:03.113Z,63.48
2018-06-21T01:03:34.288Z,63.69
2018-06-21T01:04:05.460Z,64.03
2018-06-21T01:04:36.629Z,63.68
2018-06-21T01:05:07.800Z,63.98
2018-06-21T01:05:38.982Z,63.37
2018-06-21T01:06:10.155Z,63.57
2018-06-21T01:06:41.424Z,63.58
2018-06-21T01:07:12.609Z,63.68
2018-06-21T01:07:43.775Z,63.70
2018-06-21T01:08:14.935Z,63.89
2018-06-21T01:08:46.159Z,64.36
2018-06-21T01:09:17.400Z,64.23
2018-06-21T01:09:48.617Z,64.00
2018-06-21T01:10:19.794Z,63.87
2018-06-21T01:10:50.956Z,64.36
2018-06-21T01:11:22.141Z,64.39
2018-06-21T01:11:53.372Z,64.35
2018-06-21T01:12:24.581Z,64.65
2018-06-21T01:12:55.756Z,64.40
2018-06-21T01:13:26.928Z,64.45
2018-06-21T01:13:58.098Z,64.43
2018-06-21T01:14:29.272Z,64.06
2018-06-21T01:15:00.452Z,64.48
2018-06-21T01:15:31.684Z,64.93
2018-06-21T01:16:02.861Z,64.82
2018-06-21T01:16:34.092Z,64.39
2018-06-21T01:17:05.280Z,64.72
2018-06-21T01:17:36.456Z,64.29
2018-06-21T01:18:07.681Z,64.17
2018-06-21T01:18:38.920Z,64.24
2018-06-21T01:19:10.105Z,64.99
2018-06-21T01:19:41.337Z,64.46
2018-06-21T01:20:12.580Z,64.60
2018-06-21T01:20:43.813Z,64.93
2018-06-21T01:21:14.998Z,65.16
2018-06-21T01:21:46.177Z,64.92
2018-06-21T01:22:17.375Z,64.95
2018-06-21T01:22:48.602Z,64.92
2018-06-21T01:23:19.788Z,65.30
2018-06-21T01:23:51.013Z,64.86
2018-06-21T01:24:22.249Z,65.25
2018-06-21T01:24:53.436Z,64.79
2018-06-21T01:25:24.686Z,65.47
2018-06-21T01:25:55.896Z,65.52
2018-06-21T01:26:27.068Z,64.82
2018-06-21T01:26:58.280Z,65.22
2018-06-21T01:27:29.456Z,65.23
2018-06-21T01:28:00.643Z,65.74
2018-06-21T01:28:31.882Z,65.25
2018-06-21T01:29:03.161Z,65.64
2018-06-21T01:29:34.348Z,65.20
2018-06-21T01:30:05.534Z,65.57
2018-06-21T01:30:36.768Z,65.79
2018-06-21T01:31:08.013Z,65.53
2018-06-21T01:31:39.192Z,65.42
2018-06-21T01:32:10.372Z,65.65
2018-06-21T01:32:41.598Z,65.69
2018-06-21T01:33:12.820Z,65.68
2018-06-21T01:33:44.053Z,65.43
2018-06-21T01:34:15.245Z,65.65
2018-06-21T01:34:46.484Z,65.11
2018-06-21T01:35:17.705Z,64.74
2018-06-21T01:35:48.903Z,64.94
2018-06-21T01:36:20.133Z,64.40
2018-06-21T01:36:51.372Z,65.05
2018-06-21T01:37:22.552Z,64.29
2018-06-21T01:37:53.785Z,64.03
2018-06-21T01:38:25.021Z,63.98
2018-06-21T01:38:56.205Z,63.97
2018-06-21T01:39:27.394Z,64.32
2018-06-21T01:39:58.634Z,64.62
2018-06-21T01:40:29.865Z,64.80
2018-06-21T01:41:01.044Z,64.76
2018-06-21T01:41:32.286Z,64.15
2018-06-21T01:42:03.477Z,64.41
2018-06-21T01:42:34.648Z,64.46
2018-06-21T01:43:05.936Z,64.17
2018-06-21T01:43:37.125Z,64.26
2018-06-21T01:44:08.305Z,64.18
2018-06-21T01:44:39.485Z,64.59
2018-06-21T01:45:10.668Z,64.74
2018-06-21T01:45:41.840Z,64.88
2018-06-21T01:46:13.034Z,64.70
2018-06-21T01:46:44.263Z,64.57
2018-06-21T01:47:15.450Z,64.39
2018-06-21T01:47:46.660Z,63.78
2018-06-21T01:48:17.833Z,64.07
2018-06-21T01:48:49.078Z,63.59
2018-06-21T01:49:20.260Z,63.83
2018-06-21T01:49:51.440Z,63.28
2018-06-21T01:50:22.620Z,63.51
2018-06-21T01:50:53.861Z,62.88
2018-06-21T01:51:25.088Z,62.79
2018-06-21T01:51:56.260Z,62.56
2018-06-21T01:52:27.436Z,62.41
2018-06-21T01:52:58.626Z,63.24
2018-06-21T01:53:29.855Z,63.13
2018-06-21T01:54:01.090Z,62.76
2018-06-21T01:54:32.271Z,62.32
2018-06-21T01:55:03.446Z,62.30
2018-06-21T01:55:34.627Z,62.36
2018-06-21T01:56:05.868Z,62.53
2018-06-21T01:56:37.057Z,62.79
2018-06-21T01:57:08.249Z,62.73
2018-06-21T01:57:39.472Z,62.62
2018-06-21T01:58:10.657Z,63.11
2018-06-21T01:58:41.876Z,62.81
2018-06-21T01:59:13.109Z,62.97
2018-06-21T01:59:44.344Z,63.11
2018-06-21T02:00:15.578Z,63.88
2018-06-21T02:00:46.861Z,63.49
2018-06-21T02:01:18.044Z,63.81
2018-06-21T02:01:49.224Z,63.79
2018-06-21T02:02:20.405Z,64.34
2018-06-21T02:02:51.582Z,63.66
2018-06-21T02:03:22.773Z,63.96
2018-06-21T02:03:54.103Z,63.79
2018-06-21T02:04:25.298Z,64.46
2018-06-21T02:04:56.527Z,64.00
2018-06-21T02:05:27.714Z,64.53
2018-06-21T02:05:58.887Z,64.10
2018-06-21T02:06:30.065Z,64.15
2018-06-21T02:07:01.236Z,64.85
2018-06-21T02:07:32.476Z,64.54
2018-06-21T02:08:04.531Z,64.28
2018-06-21T02:08:35.747Z,64.44
2018-06-21T02:09:06.930Z,63.98
2018-06-21T02:09:38.112Z,64.62
2018-06-21T02:10:09.343Z,64.58
2018-06-21T02:10:40.544Z,64.32
2018-06-21T02:11:11.751Z,64.43
2018-06-21T02:11:42.924Z,64.31
2018-06-21T02:12:14.100Z,64.44
2018-06-21T02:12:45.320Z,63.63
2018-06-21T02:13:16.540Z,63.69
2018-06-21T02:13:47.724Z,63.80
2018-06-21T02:14:18.954Z,64.46
2018-06-21T02:14:50.142Z,64.22
2018-06-21T02:15:21.374Z,63.97
2018-06-21T02:15:52.604Z,64.16
2018-06-21T02:16:23.836Z,64.21
2018-06-21T02:16:55.024Z,64.31
2018-06-21T02:17:26.201Z,64.02
2018-06-21T02:17:57.381Z,63.93
2018-06-21T02:18:28.661Z,64.38
2018-06-21T02:18:59.896Z,63.83
2018-06-21T02:19:31.076Z,64.62
2018-06-21T02:20:02.310Z,64.29
2018-06-21T02:20:33.536Z,64.31
2018-06-21T02:21:04.772Z,64.26
2018-06-21T02:21:35.960Z,64.44
2018-06-21T02:22:07.132Z,64.89
2018-06-21T02:22:38.368Z,65.03
2018-06-21T02:23:09.552Z,64.36
2018-06-21T02:23:40.836Z,64.75
2018-06-21T02:24:12.057Z,64.35
2018-06-21T02:24:43.290Z,64.80
2018-06-21T02:25:14.531Z,64.40
2018-06-21T02:25:45.766Z,64.96
2018-06-21T02:26:16.953Z,64.81
2018-06-21T02:26:48.133Z,64.58
2018-06-21T02:27:19.304Z,64.50
2018-06-21T02:27:50.589Z,64.44
2018-06-21T02:28:21.777Z,64.89
2018-06-21T02:28:52.952Z,64.97
2018-06-21T02:29:24.135Z,64.15
2018-06-21T02:29:55.313Z,64.55
2018-06-21T02:30:26.507Z,63.69
2018-06-21T02:30:57.759Z,63.87
2018-06-21T02:31:29.041Z,64.09
2018-06-21T02:32:00.230Z,64.33
2018-06-21T02:32:31.455Z,64.16
2018-06-21T02:33:02.696Z,65.10
2018-06-21T02:33:33.885Z,64.90
2018-06-21T02:34:05.076Z,65.12
2018-06-21T02:34:36.269Z,65.07
2018-06-21T02:35:07.449Z,65.17
2018-06-21T02:35:38.678Z,64.72
2018-06-21T02:36:09.918Z,64.63
2018-06-21T02:36:41.101Z,65.38
2018-06-21T02:37:12.372Z,65.30
2018-06-21T02:37:43.560Z,65.33
2018-06-21T02:38:14.738Z,65.30
2018-06-21T02:38:45.914Z,64.81
2018-06-21T02:39:17.108Z,65.22
2018-06-21T02:39:48.329Z,65.19
2018-06-21T02:40:19.510Z,65.07
2018-06-21T02:40:50.746Z,65.22
2018-06-21T02:41:21.977Z,64.50
2018-06-21T02:41:53.161Z,64.47
2018-06-21T02:42:24.336Z,64.10
2018-06-21T02:42:55.554Z,64.37
2018-06-21T02:43:26.744Z,65.07
2018-06-21T02:43:57.968Z,65.17
2018-06-21T02:44:29.199Z,64.58
2018-06-21T02:45:00.397Z,65.13
2018-06-21T02:45:31.625Z,64.84
2018-06-21T02:46:02.800Z,64.72
2018-06-21T02:46:33.986Z,64.49
2018-06-21T02:47:05.157Z,64.81
2018-06-21T02:47:36.345Z,64.54
2018-06-21T02:48:07.584Z,64.44
2018-06-21T02:48:38.778Z,64.38
2018-06-21T02:49:09.956Z,63.89
2018-06-21T02:49:41.135Z,64.27
2018-06-21T02:50:12.362Z,63.58
2018-06-21T02:50:43.585Z,64.35
2018-06-21T02:51:14.810Z,64.28
2018-06-21T02:51:46.045Z,63.64
2018-06-21T02:52:17.241Z,63.38
2018-06-21T02:52:48.473Z,63.69
2018-06-21T02:53:19.656Z,64.01
2018-06-21T02:53:50.936Z,63.48
2018-06-21T02:54:22.117Z,63.25
2018-06-21T02:54:53.348Z,63.59
2018-06-21T02:55:24.525Z,64.12
2018-06-21T02:55:55.736Z,63.92
2018-06-21T02:56:26.965Z,63.68
2018-06-21T02:56:58.164Z,63.83
2018-06-21T02:57:29.388Z,63.40
2018-06-21T02:58:00.572Z,63.24
2018-06-21T02:58:31.758Z,63.26
2018-06-21T02:59:02.988Z,63.33
2018-06-21T02:59:34.173Z,63.65
2018-06-21T03:00:05.421Z,63.81
2018-06-21T03:00:36.658Z,63.79
2018-06-21T03:01:07.849Z,63.90
2018-06-21T03:01:39.015Z,63.39
2018-06-21T03:02:10.209Z,63.34
2018-06-21T03:02:41.392Z,62.98
2018-06-21T03:03:12.565Z,63.28
2018-06-21T03:03:43.798Z,63.33
2018-06-21T03:04:15.079Z,62.45
2018-06-21T03:04:46.266Z,62.89
2018-06-21T03:05:17.500Z,62.43
2018-06-21T03:05:48.743Z,62.69
2018-06-21T03:06:19.939Z,62.32
2018-06-21T03:06:51.118Z,62.22
2018-06-21T03:07:22.356Z,63.04
2018-06-21T03:07:53.590Z,62.83
2018-06-21T03:08:24.870Z,62.35
2018-06-21T03:08:56.058Z,62.59
2018-06-21T03:09:27.276Z,62.35
2018-06-21T03:09:58.488Z,61.88
2018-06-21T03:10:29.670Z,62.40
2018-06-21T03:11:00.853Z,62.40
2018-06-21T03:11:32.041Z,62.20
2018-06-21T03:12:03.213Z,61.88
2018-06-21T03:12:34.445Z,61.37
2018-06-21T03:13:05.637Z,61.09
2018-06-21T03:13:36.814Z,60.81
2018-06-21T03:14:08.050Z,61.03
2018-06-21T03:14:39.301Z,60.12
2018-06-21T03:15:10.542Z,60.83
2018-06-21T03:15:41.785Z,60.87
2018-06-21T03:16:13.025Z,60.17
2018-06-21T03:16:44.212Z,60.56
2018-06-21T03:17:15.395Z,60.09
2018-06-21T03:17:46.576Z,60.42
2018-06-21T03:18:17.759Z,60.31
2018-06-21T03:18:48.936Z,60.07
2018-06-21T03:19:20.321Z,59.87
2018-06-21T03:19:51.607Z,60.03
2018-06-21T03:20:22.842Z,59.81
2018-06-21T03:20:54.074Z,59.83
2018-06-21T03:21:25.295Z,59.91
2018-06-21T03:21:56.558Z,59.06
2018-06-21T03:22:27.740Z,58.79
2018-06-21T03:22:58.971Z,58.54
2018-06-21T03:23:30.156Z,58.96
2018-06-21T03:24:01.341Z,58.60
2018-06-21T03:24:32.514Z,58.38
2018-06-21T03:25:03.725Z,58.08
2018-06-21T03:25:34.906Z,58.70
2018-06-21T03:26:06.120Z,59.03
2018-06-21T03:26:37.341Z,59.01
2018-06-21T03:27:08.520Z,58.66
2018-06-21T03:27:39.748Z,58.72
2018-06-21T03:28:10.936Z,59.10
2018-06-21T03:28:42.442Z,58.46
2018-06-21T03:29:13.784Z,58.90
2018-06-21T03:29:45.009Z,58.96
2018-06-21T03:30:16.233Z,59.20
2018-06-21T03:30:47.436Z,59.47
2018-06-21T03:31:18.608Z,59.63
2018-06-21T03:31:49.782Z,59.92
2018-06-21T03:32:20.952Z,59.86
2018-06-21T03:32:52.125Z,59.57
2018-06-21T03:33:23.299Z,60.27
2018-06-21T03:33:54.484Z,59.69
2018-06-21T03:34:25.704Z,59.75
2018-06-21T03:34:56.881Z,60.12
2018-06-21T03:35:28.113Z,59.69
2018-06-21T03:35:59.280Z,59.49
2018-06-21T03:36:30.461Z,60.04
2018-06-21T03:37:01.690Z,59.44
2018-06-21T03:37:32.913Z,59.00
2018-06-21T03:38:04.093Z,57.95
2018-06-21T03:38:35.260Z,59.13
2018-06-21T03:39:06.485Z,57.99
2018-06-21T03:39:37.669Z,57.99
2018-06-21T03:40:08.893Z,57.01
2018-06-21T03:40:40.122Z,56.60
2018-06-21T03:41:11.300Z,56.18
2018-06-21T03:41:42.521Z,55.33
2018-06-21T03:42:13.755Z,53.51
2018-06-21T03:42:44.996Z,53.72
2018-06-21T03:43:16.241Z,53.12
2018-06-21T03:43:47.422Z,52.45
2018-06-21T03:44:18.598Z,51.77
2018-06-21T03:44:49.777Z,50.74
2018-06-21T03:45:21.031Z,50.80
2018-06-21T03:45:52.252Z,50.45
2018-06-21T03:46:23.426Z,50.55
2018-06-21T03:46:54.600Z,50.08
2018-06-21T03:47:25.770Z,48.98
2018-06-21T03:47:56.941Z,49.35
2018-06-21T03:48:28.161Z,48.15
2018-06-21T03:48:59.393Z,48.39
2018-06-21T03:49:30.618Z,47.44
2018-06-21T03:50:01.804Z,46.91
2018-06-21T03:50:32.975Z,47.43
2018-06-21T03:51:04.242Z,46.37
2018-06-21T03:51:35.428Z,47.27
2018-06-21T03:52:06.611Z,46.19
2018-06-21T03:52:37.784Z,46.42
2018-06-21T03:53:08.988Z,46.33
2018-06-21T03:53:40.156Z,46.71
2018-06-21T03:54:11.328Z,47.60
2018-06-21T03:54:42.597Z,48.31
2018-06-21T03:55:13.773Z,48.40
2018-06-21T03:55:45.001Z,49.47
2018-06-21T03:56:16.237Z,49.71
2018-06-21T03:56:47.404Z,49.76
2018-06-21T03:57:18.580Z,50.03
2018-06-21T03:57:49.761Z,50.23
2018-06-21T03:58:20.989Z,49.72
2018-06-21T03:58:52.168Z,49.52
2018-06-21T03:59:23.344Z,49.29
2018-06-21T03:59:54.519Z,48.87
2018-06-21T04:00:25.708Z,49.31
2018-06-21T04:00:56.886Z,49.04
2018-06-21T04:01:28.100Z,48.11
2018-06-21T04:01:59.284Z,47.09
2018-06-21T04:02:30.509Z,46.49
2018-06-21T04:03:01.698Z,46.20
2018-06-21T04:03:32.876Z,47.37
2018-06-21T04:04:04.089Z,48.15
2018-06-21T04:04:35.268Z,47.67
2018-06-21T04:05:06.446Z,48.64
2018-06-21T04:05:37.672Z,48.92
2018-06-21T04:06:08.891Z,48.47
2018-06-21T04:06:40.068Z,48.94
2018-06-21T04:07:11.275Z,48.66
2018-06-21T04:07:42.445Z,48.97
2018-06-21T04:08:13.616Z,49.27
2018-06-21T04:08:44.849Z,48.30
2018-06-21T04:09:16.027Z,48.12
2018-06-21T04:09:47.208Z,47.49
2018-06-21T04:10:18.384Z,47.19
2018-06-21T04:10:49.556Z,46.81
2018-06-21T04:11:20.776Z,45.88
2018-06-21T04:11:51.950Z,46.15
2018-06-21T04:12:23.185Z,46.35
2018-06-21T04:12:54.365Z,46.68
2018-06-21T04:13:25.605Z,46.57
2018-06-21T04:13:56.805Z,47.58
2018-06-21T04:14:27.991Z,48.09
2018-06-21T04:14:59.168Z,48.23
2018-06-21T04:15:30.337Z,48.42
2018-06-21T04:16:01.549Z,48.85
2018-06-21T04:16:32.720Z,48.42
2018-06-21T04:17:03.892Z,49.10
2018-06-21T04:17:35.089Z,49.64
2018-06-21T04:18:06.337Z,49.45
2018-06-21T04:18:37.569Z,49.41
2018-06-21T04:19:08.744Z,49.38
2018-06-21T04:19:40.028Z,48.85
2018-06-21T04:20:11.274Z,48.58
2018-06-21T04:20:42.526Z,48.20
2018-06-21T04:21:13.710Z,47.77
2018-06-21T04:21:44.880Z,48.22
2018-06-21T04:22:16.101Z,47.97
2018-06-21T04:22:47.994Z,48.42
2018-06-21T04:23:19.265Z,49.65
2018-06-21T04:23:50.484Z,48.63
2018-06-21T04:24:21.762Z,48.57
2018-06-21T04:24:53.001Z,48.78
2018-06-21T04:25:24.181Z,47.18
2018-06-21T04:25:55.357Z,46.67
2018-06-21T04:26:26.589Z,46.28
2018-06-21T04:26:57.777Z,45.44
2018-06-21T04:27:29.001Z,44.59
2018-06-21T04:28:00.182Z,44.47
2018-06-21T04:28:31.372Z,43.69
2018-06-21T04:29:02.601Z,44.70
2018-06-21T04:29:33.824Z,44.50
2018-06-21T04:30:05.049Z,44.54
2018-06-21T04:30:36.284Z,45.31
2018-06-21T04:31:07.470Z,45.33
2018-06-21T04:31:38.713Z,45.05
2018-06-21T04:32:09.960Z,44.52
2018-06-21T04:32:42.159Z,45.54
2018-06-21T04:33:13.344Z,45.75
2018-06-21T04:33:44.533Z,44.62
2018-06-21T04:34:15.748Z,44.24
2018-06-21T04:34:46.975Z,44.17
2018-06-21T04:35:18.165Z,44.58
2018-06-21T04:35:49.341Z,43.53
2018-06-21T04:36:20.576Z,42.91
2018-06-21T04:36:51.812Z,42.15
2018-06-21T04:37:23.045Z,41.70
2018-06-21T04:37:54.257Z,41.12
2018-06-21T04:38:25.505Z,40.77
2018-06-21T04:38:56.757Z,40.35
2018-06-21T04:39:27.948Z,40.99
2018-06-21T04:39:59.172Z,41.68
2018-06-21T04:40:30.346Z,42.00
2018-06-21T04:41:01.529Z,42.07
2018-06-21T04:41:32.705Z,42.61
2018-06-21T04:42:03.884Z,43.10
2018-06-21T04:42:35.064Z,42.88
2018-06-21T04:43:06.235Z,43.53
2018-06-21T04:43:37.404Z,43.13
2018-06-21T04:44:08.590Z,42.85
2018-06-21T04:44:39.776Z,42.06
2018-06-21T04:45:11.056Z,41.63
2018-06-21T04:45:42.244Z,41.07
2018-06-21T04:46:13.520Z,40.19
2018-06-21T04:46:44.757Z,39.58
2018-06-21T04:47:15.948Z,38.84
2018-06-21T04:47:47.174Z,38.72
2018-06-21T04:48:18.413Z,38.30
2018-06-21T04:48:49.649Z,38.12
2018-06-21T04:49:20.909Z,38.22
2018-06-21T04:49:52.102Z,38.23
2018-06-21T04:50:23.282Z,38.34
2018-06-21T04:50:54.468Z,38.41
2018-06-21T04:51:25.692Z,38.77
2018-06-21T04:51:56.856Z,39.35
2018-06-21T04:52:28.031Z,40.77
2018-06-21T04:52:59.205Z,40.82
2018-06-21T04:53:30.376Z,41.44
2018-06-21T04:54:01.558Z,41.74
2018-06-21T04:54:32.741Z,42.40
2018-06-21T04:55:03.969Z,42.76
2018-06-21T04:55:35.205Z,42.93
2018-06-21T04:56:07.677Z,43.21
2018-06-21T04:56:38.976Z,43.11
2018-06-21T04:57:10.229Z,42.80
2018-06-21T04:57:41.469Z,42.00
2018-06-21T04:58:12.706Z,41.84
2018-06-21T04:58:43.942Z,41.30
2018-06-21T04:59:15.183Z,40.71
2018-06-21T04:59:46.376Z,40.17
2018-06-21T05:00:17.554Z,39.88
2018-06-21T05:00:48.780Z,39.19
2018-06-21T05:01:19.960Z,39.84
2018-06-21T05:01:51.182Z,40.24
2018-06-21T05:02:22.369Z,40.54
2018-06-21T05:02:53.492Z,41.68
2018-06-21T05:03:24.672Z,41.70
2018-06-21T05:03:55.853Z,42.16
2018-06-21T05:04:27.090Z,42.55
2018-06-21T05:04:58.258Z,42.81
2018-06-21T05:05:29.488Z,42.72
2018-06-21T05:06:00.671Z,42.39
2018-06-21T05:06:31.871Z,41.60
2018-06-21T05:07:03.094Z,40.65
2018-06-21T05:07:34.284Z,39.98
2018-06-21T05:08:05.506Z,39.26
2018-06-21T05:08:36.690Z,38.21
2018-06-21T05:09:07.874Z,37.72
2018-06-21T05:09:39.041Z,37.20
2018-06-21T05:10:10.204Z,36.82
2018-06-21T05:10:41.370Z,35.87
2018-06-21T05:11:13.463Z,35.98
2018-06-21T05:11:44.633Z,35.59
2018-06-21T05:12:15.842Z,35.79
2018-06-21T05:12:47.015Z,34.98
2018-06-21T05:13:18.236Z,34.44
2018-06-21T05:13:49.496Z,34.51
2018-06-21T05:14:20.667Z,34.54
2018-06-21T05:14:51.839Z,34.31
2018-06-21T05:15:23.020Z,34.13
2018-06-21T05:15:54.192Z,33.81
2018-06-21T05:16:25.377Z,33.68
2018-06-21T05:16:56.604Z,33.33
2018-06-21T05:17:27.793Z,33.33
2018-06-21T05:17:58.976Z,33.07
2018-06-21T05:18:30.197Z,32.54
2018-06-21T05:19:01.378Z,32.09
2018-06-21T05:19:32.549Z,31.83
2018-06-21T05:20:03.785Z,31.90
2018-06-21T05:20:34.973Z,31.28
2018-06-21T05:21:06.209Z,31.04
2018-06-21T05:21:37.435Z,30.64
2018-06-21T05:22:08.620Z,30.20
2018-06-21T05:22:39.801Z,30.10
2018-06-21T05:23:11.065Z,30.82
2018-06-21T05:23:42.248Z,30.63
2018-06-21T05:24:13.428Z,31.11
2018-06-21T05:24:44.606Z,31.02
2018-06-21T05:25:15.796Z,30.59
2018-06-21T05:25:46.973Z,30.55
2018-06-21T05:26:18.160Z,31.24
2018-06-21T05:26:49.388Z,31.75
2018-06-21T05:27:20.606Z,31.53
2018-06-21T05:27:51.837Z,31.38
2018-06-21T05:28:23.073Z,31.02
2018-06-21T05:28:54.256Z,30.67
2018-06-21T05:29:25.435Z,31.21
2018-06-21T05:29:56.673Z,30.20
2018-06-21T05:30:27.854Z,30.22
2018-06-21T05:30:59.034Z,30.37
2018-06-21T05:31:30.209Z,30.18
2018-06-21T05:32:01.535Z,29.91
2018-06-21T05:32:32.708Z,29.14
2018-06-21T05:33:03.880Z,28.99
2018-06-21T05:33:35.057Z,28.09
2018-06-21T05:34:06.233Z,27.77
2018-06-21T05:34:37.416Z,27.90
2018-06-21T05:35:08.624Z,28.15
2018-06-21T05:35:39.833Z,28.56
2018-06-21T05:36:11.101Z,28.52
2018-06-21T05:36:42.274Z,28.49
2018-06-21T05:37:13.445Z,28.51
2018-06-21T05:37:44.612Z,28.04
2018-06-21T05:38:15.781Z,28.23
2018-06-21T05:38:46.956Z,28.07
2018-06-21T05:39:18.153Z,28.42
2018-06-21T05:39:49.427Z,28.39
2018-06-21T05:40:20.653Z,28.39
2018-06-21T05:40:51.886Z,28.12
2018-06-21T05:41:23.072Z,28.14
2018-06-21T05:41:54.249Z,28.67
2018-06-21T05:42:25.482Z,28.55
2018-06-21T05:42:56.770Z,28.64
2018-06-21T05:43:27.958Z,29.15
2018-06-21T05:43:59.165Z,28.54
2018-06-21T05:44:30.441Z,28.68
2018-06-21T05:45:01.697Z,29.04
2018-06-21T05:45:32.878Z,28.85
2018-06-21T05:46:04.046Z,28.51
2018-06-21T05:46:35.213Z,28.34
2018-06-21T05:47:06.417Z,28.91
2018-06-21T05:47:37.597Z,28.18
2018-06-21T05:48:08.853Z,28.30
2018-06-21T05:48:40.031Z,28.48
2018-06-21T05:49:11.208Z,29.34
2018-06-21T05:49:42.398Z,28.84
2018-06-21T05:50:13.646Z,28.56
2018-06-21T05:50:44.845Z,28.52
2018-06-21T05:51:16.017Z,28.51
2018-06-21T05:51:47.222Z,29.34
2018-06-21T05:52:18.392Z,29.70
2018-06-21T05:52:49.614Z,29.36
2018-06-21T05:53:20.797Z,29.75
2018-06-21T05:53:52.026Z,29.81
2018-06-21T05:54:23.197Z,29.63
2018-06-21T05:54:54.371Z,29.93
2018-06-21T05:55:25.571Z,30.23
2018-06-21T05:55:56.737Z,31.00
2018-06-21T05:56:27.956Z,30.74
2018-06-21T05:56:59.142Z,31.01
2018-06-21T05:57:30.394Z,31.09
2018-06-21T05:58:01.581Z,31.71
2018-06-21T05:58:32.766Z,31.75
2018-06-21T05:59:03.976Z,31.56
2018-06-21T05:59:35.197Z,32.23
2018-06-21T06:00:06.395Z,32.26
2018-06-21T06:00:37.570Z,32.54
2018-06-21T06:01:08.739Z,33.21
2018-06-21T06:01:39.915Z,32.27
2018-06-21T06:02:11.085Z,32.74
2018-06-21T06:02:42.381Z,33.10
2018-06-21T06:03:13.568Z,33.28
2018-06-21T06:03:44.748Z,32.99
2018-06-21T06:04:15.916Z,33.31
2018-06-21T06:04:47.179Z,34.16
2018-06-21T06:05:18.360Z,34.08
2018-06-21T06:05:49.578Z,34.26
2018-06-21T06:06:20.763Z,34.93
2018-06-21T06:06:51.936Z,34.66
2018-06-21T06:07:23.116Z,34.11
2018-06-21T06:07:54.288Z,34.33
2018-06-21T06:08:25.528Z,34.95
2018-06-21T06:08:56.749Z,35.03
2018-06-21T06:09:27.990Z,35.28
2018-06-21T06:09:59.279Z,36.05
2018-06-21T06:10:30.457Z,35.63
2018-06-21T06:11:01.646Z,35.99
2018-06-21T06:11:32.913Z,36.12
2018-06-21T06:12:06.298Z,36.80
2018-06-21T06:12:37.496Z,36.83
2018-06-21T06:13:08.725Z,36.76
2018-06-21T06:13:39.952Z,36.78
2018-06-21T06:14:11.195Z,35.99
2018-06-21T06:14:42.406Z,36.38
2018-06-21T06:15:13.632Z,36.69
2018-06-21T06:15:44.815Z,37.05
2018-06-21T06:16:16.038Z,36.97
2018-06-21T06:16:47.253Z,37.46
2018-06-21T06:17:18.485Z,37.02
2018-06-21T06:17:49.742Z,36.82
2018-06-21T06:18:20.930Z,37.33
2018-06-21T06:18:52.125Z,36.90
2018-06-21T06:19:23.358Z,37.28
2018-06-21T06:19:54.655Z,36.53
2018-06-21T06:20:25.900Z,36.61
2018-06-21T06:20:57.137Z,36.78
2018-06-21T06:21:28.334Z,36.63
2018-06-21T06:21:59.580Z,37.46
2018-06-21T06:22:30.774Z,37.04
2018-06-21T06:23:02.025Z,36.98
2018-06-21T06:23:33.212Z,37.13
2018-06-21T06:24:04.405Z,35.67
2018-06-21T06:24:35.578Z,35.56
2018-06-21T06:25:06.848Z,36.21
2018-06-21T06:25:38.122Z,36.54
2018-06-21T06:26:09.365Z,36.63
2018-06-21T06:26:40.620Z,35.79
2018-06-21T06:27:11.840Z,36.83
2018-06-21T06:27:43.103Z,36.32
2018-06-21T06:28:14.341Z,35.80
2018-06-21T06:28:45.619Z,35.34
2018-06-21T06:29:16.832Z,34.23
2018-06-21T06:29:48.018Z,34.85
2018-06-21T06:30:19.203Z,35.27
2018-06-21T06:30:50.403Z,34.63
2018-06-21T06:31:21.592Z,35.11
2018-06-21T06:31:52.828Z,35.84
2018-06-21T06:32:24.121Z,33.44
2018-06-21T06:32:55.389Z,34.31
2018-06-21T06:33:26.566Z,33.64
2018-06-21T06:33:57.809Z,33.88
2018-06-21T06:34:29.034Z,35.04
2018-06-21T06:35:00.254Z,33.91
2018-06-21T06:35:31.498Z,34.29
2018-06-21T06:36:02.671Z,32.79
2018-06-21T06:36:33.850Z,33.29
2018-06-21T06:37:05.026Z,33.74
2018-06-21T06:37:36.197Z,33.01
2018-06-21T06:38:07.416Z,33.40
2018-06-21T06:38:38.597Z,33.13
2018-06-21T06:39:09.834Z,34.24
2018-06-21T06:39:41.093Z,34.64
2018-06-21T06:40:12.338Z,34.42
2018-06-21T06:40:43.577Z,34.97
2018-06-21T06:41:14.777Z,35.44
2018-06-21T06:41:45.955Z,35.78